sensor_id;sensor_type;location;lat;lon;timestamp;P1;durP1;ratioP1;P2;durP2;ratioP2
26936;SDS011;14495;48.116;11.676;2022-11-21T00:03:25;1.17;;;0.80;;
26936;SDS011;14495;48.116;11.676;2022-11-21T00:05:50;0.65;;;0.60;;
26936;SDS011;14495;48.116;11.676;2022-11-21T00:08:17;0.45;;;0.45;;
26936;SDS011;14495;48.116;11.676;2022-11-21T00:10:45;0.70;;;0.63;;
26936;SDS011;14495;48.116;11.676;2022-11-21T00:13:12;4.10;;;0.70;;
26936;SDS011;14495;48.116;11.676;2022-11-21T00:15:39;0.93;;;0.70;;
26936;SDS011;14495;48.116;11.676;2022-11-21T00:18:05;0.68;;;0.57;;
26936;SDS011;14495;48.116;11.676;2022-11-21T00:20:30;1.13;;;0.70;;
26936;SDS011;14495;48.116;11.676;2022-11-21T00:22:56;2.53;;;0.70;;
26936;SDS011;14495;48.116;11.676;2022-11-21T00:25:21;0.73;;;0.63;;
26936;SDS011;14495;48.116;11.676;2022-11-21T00:27:46;0.47;;;0.40;;
26936;SDS011;14495;48.116;11.676;2022-11-21T00:30:12;0.88;;;0.60;;
26936;SDS011;14495;48.116;11.676;2022-11-21T00:32:37;0.70;;;0.57;;
26936;SDS011;14495;48.116;11.676;2022-11-21T00:35:03;0.75;;;0.50;;
26936;SDS011;14495;48.116;11.676;2022-11-21T00:37:33;0.60;;;0.60;;
26936;SDS011;14495;48.116;11.676;2022-11-21T00:39:58;0.50;;;0.50;;
26936;SDS011;14495;48.116;11.676;2022-11-21T00:42:24;0.88;;;0.60;;
26936;SDS011;14495;48.116;11.676;2022-11-21T00:44:49;0.88;;;0.55;;
26936;SDS011;14495;48.116;11.676;2022-11-21T00:47:15;0.50;;;0.50;;
26936;SDS011;14495;48.116;11.676;2022-11-21T00:49:40;0.65;;;0.63;;
26936;SDS011;14495;48.116;11.676;2022-11-21T00:52:06;1.10;;;0.70;;
26936;SDS011;14495;48.116;11.676;2022-11-21T00:54:31;0.60;;;0.60;;
26936;SDS011;14495;48.116;11.676;2022-11-21T00:56:56;0.85;;;0.63;;
26936;SDS011;14495;48.116;11.676;2022-11-21T00:59:22;0.88;;;0.60;;
26936;SDS011;14495;48.116;11.676;2022-11-21T01:01:47;0.50;;;0.50;;
26936;SDS011;14495;48.116;11.676;2022-11-21T01:04:12;0.70;;;0.60;;
26936;SDS011;14495;48.116;11.676;2022-11-21T01:06:37;2.15;;;0.60;;
26936;SDS011;14495;48.116;11.676;2022-11-21T01:09:03;1.10;;;0.60;;
26936;SDS011;14495;48.116;11.676;2022-11-21T01:11:29;0.60;;;0.50;;
26936;SDS011;14495;48.116;11.676;2022-11-21T01:13:54;0.77;;;0.50;;
26936;SDS011;14495;48.116;11.676;2022-11-21T01:16:21;0.90;;;0.73;;
26936;SDS011;14495;48.116;11.676;2022-11-21T01:18:48;0.50;;;0.50;;
26936;SDS011;14495;48.116;11.676;2022-11-21T01:21:24;0.70;;;0.55;;
26936;SDS011;14495;48.116;11.676;2022-11-21T01:23:51;1.17;;;0.80;;
26936;SDS011;14495;48.116;11.676;2022-11-21T01:26:18;0.50;;;0.50;;
26936;SDS011;14495;48.116;11.676;2022-11-21T01:28:48;1.83;;;0.57;;
26936;SDS011;14495;48.116;11.676;2022-11-21T01:31:15;2.67;;;0.70;;
26936;SDS011;14495;48.116;11.676;2022-11-21T01:33:46;0.85;;;0.52;;
26936;SDS011;14495;48.116;11.676;2022-11-21T01:36:16;0.73;;;0.50;;
26936;SDS011;14495;48.116;11.676;2022-11-21T01:38:44;1.38;;;0.70;;
26936;SDS011;14495;48.116;11.676;2022-11-21T01:41:12;1.60;;;0.80;;
26936;SDS011;14495;48.116;11.676;2022-11-21T01:43:38;0.82;;;0.60;;
26936;SDS011;14495;48.116;11.676;2022-11-21T01:53:35;1.23;;;0.93;;
26936;SDS011;14495;48.116;11.676;2022-11-21T01:56:02;0.77;;;0.60;;
26936;SDS011;14495;48.116;11.676;2022-11-21T01:58:28;0.88;;;0.60;;
26936;SDS011;14495;48.116;11.676;2022-11-21T02:00:56;1.13;;;0.80;;
26936;SDS011;14495;48.116;11.676;2022-11-21T02:03:24;0.68;;;0.60;;
26936;SDS011;14495;48.116;11.676;2022-11-21T02:05:52;0.73;;;0.55;;
26936;SDS011;14495;48.116;11.676;2022-11-21T02:08:19;1.20;;;0.60;;
26936;SDS011;14495;48.116;11.676;2022-11-21T02:11:08;1.48;;;0.95;;
26936;SDS011;14495;48.116;11.676;2022-11-21T02:13:42;1.60;;;0.60;;
26936;SDS011;14495;48.116;11.676;2022-11-21T02:16:08;1.60;;;0.60;;
26936;SDS011;14495;48.116;11.676;2022-11-21T02:18:33;0.60;;;0.60;;
26936;SDS011;14495;48.116;11.676;2022-11-21T02:21:06;0.88;;;0.63;;
26936;SDS011;14495;48.116;11.676;2022-11-21T02:26:11;0.50;;;0.50;;
26936;SDS011;14495;48.116;11.676;2022-11-21T02:28:37;0.80;;;0.63;;
26936;SDS011;14495;48.116;11.676;2022-11-21T02:31:02;2.85;;;0.80;;
26936;SDS011;14495;48.116;11.676;2022-11-21T02:33:27;1.00;;;0.80;;
26936;SDS011;14495;48.116;11.676;2022-11-21T02:35:54;1.10;;;0.60;;
26936;SDS011;14495;48.116;11.676;2022-11-21T02:38:26;2.35;;;0.75;;
26936;SDS011;14495;48.116;11.676;2022-11-21T02:43:31;1.33;;;0.73;;
26936;SDS011;14495;48.116;11.676;2022-11-21T02:46:00;2.65;;;0.90;;
26936;SDS011;14495;48.116;11.676;2022-11-21T02:48:25;0.93;;;0.55;;
26936;SDS011;14495;48.116;11.676;2022-11-21T02:50:51;5.15;;;0.80;;
26936;SDS011;14495;48.116;11.676;2022-11-21T02:53:16;1.75;;;0.80;;
26936;SDS011;14495;48.116;11.676;2022-11-21T02:55:43;2.15;;;0.80;;
26936;SDS011;14495;48.116;11.676;2022-11-21T02:58:09;4.53;;;0.85;;
26936;SDS011;14495;48.116;11.676;2022-11-21T03:00:36;1.58;;;0.80;;
26936;SDS011;14495;48.116;11.676;2022-11-21T03:03:02;1.00;;;0.70;;
26936;SDS011;14495;48.116;11.676;2022-11-21T03:05:27;1.23;;;0.57;;
26936;SDS011;14495;48.116;11.676;2022-11-21T03:07:53;4.40;;;1.02;;
26936;SDS011;14495;48.116;11.676;2022-11-21T03:10:19;1.05;;;0.52;;
26936;SDS011;14495;48.116;11.676;2022-11-21T03:12:44;0.77;;;0.60;;
26936;SDS011;14495;48.116;11.676;2022-11-21T03:15:11;0.57;;;0.50;;
26936;SDS011;14495;48.116;11.676;2022-11-21T03:17:37;1.55;;;0.63;;
26936;SDS011;14495;48.116;11.676;2022-11-21T03:20:03;0.85;;;0.60;;
26936;SDS011;14495;48.116;11.676;2022-11-21T03:22:29;1.73;;;0.60;;
26936;SDS011;14495;48.116;11.676;2022-11-21T03:24:55;1.33;;;0.70;;
26936;SDS011;14495;48.116;11.676;2022-11-21T03:27:21;5.72;;;0.70;;
26936;SDS011;14495;48.116;11.676;2022-11-21T03:29:46;1.17;;;0.70;;
26936;SDS011;14495;48.116;11.676;2022-11-21T03:32:11;2.55;;;0.73;;
26936;SDS011;14495;48.116;11.676;2022-11-21T03:34:38;0.88;;;0.75;;
26936;SDS011;14495;48.116;11.676;2022-11-21T03:37:03;0.70;;;0.55;;
26936;SDS011;14495;48.116;11.676;2022-11-21T03:39:28;1.33;;;0.60;;
26936;SDS011;14495;48.116;11.676;2022-11-21T03:41:54;1.27;;;0.60;;
26936;SDS011;14495;48.116;11.676;2022-11-21T03:44:19;3.03;;;0.65;;
26936;SDS011;14495;48.116;11.676;2022-11-21T03:46:45;1.95;;;0.60;;
26936;SDS011;14495;48.116;11.676;2022-11-21T03:49:11;1.20;;;0.70;;
26936;SDS011;14495;48.116;11.676;2022-11-21T03:51:37;2.10;;;0.80;;
26936;SDS011;14495;48.116;11.676;2022-11-21T03:54:02;0.75;;;0.75;;
26936;SDS011;14495;48.116;11.676;2022-11-21T03:56:29;1.92;;;0.70;;
26936;SDS011;14495;48.116;11.676;2022-11-21T03:58:54;3.92;;;1.08;;
26936;SDS011;14495;48.116;11.676;2022-11-21T04:01:20;1.25;;;0.50;;
26936;SDS011;14495;48.116;11.676;2022-11-21T04:03:46;1.48;;;0.70;;
26936;SDS011;14495;48.116;11.676;2022-11-21T04:06:12;1.60;;;1.02;;
26936;SDS011;14495;48.116;11.676;2022-11-21T04:08:39;2.90;;;0.73;;
26936;SDS011;14495;48.116;11.676;2022-11-21T04:11:04;1.40;;;0.73;;
26936;SDS011;14495;48.116;11.676;2022-11-21T04:13:30;3.50;;;0.63;;
26936;SDS011;14495;48.116;11.676;2022-11-21T04:15:55;4.40;;;0.68;;
26936;SDS011;14495;48.116;11.676;2022-11-21T04:18:21;1.83;;;0.60;;
26936;SDS011;14495;48.116;11.676;2022-11-21T04:20:46;4.53;;;0.85;;
26936;SDS011;14495;48.116;11.676;2022-11-21T04:23:11;0.90;;;0.80;;
26936;SDS011;14495;48.116;11.676;2022-11-21T04:25:37;1.02;;;0.65;;
26936;SDS011;14495;48.116;11.676;2022-11-21T04:28:03;2.25;;;0.68;;
26936;SDS011;14495;48.116;11.676;2022-11-21T04:30:29;2.35;;;0.60;;
26936;SDS011;14495;48.116;11.676;2022-11-21T04:32:56;2.25;;;0.80;;
26936;SDS011;14495;48.116;11.676;2022-11-21T04:35:22;0.70;;;0.60;;
26936;SDS011;14495;48.116;11.676;2022-11-21T04:37:48;4.57;;;0.73;;
26936;SDS011;14495;48.116;11.676;2022-11-21T04:40:14;3.20;;;1.02;;
26936;SDS011;14495;48.116;11.676;2022-11-21T04:42:40;1.95;;;0.80;;
26936;SDS011;14495;48.116;11.676;2022-11-21T04:45:07;1.60;;;0.70;;
26936;SDS011;14495;48.116;11.676;2022-11-21T04:47:36;1.58;;;0.63;;
26936;SDS011;14495;48.116;11.676;2022-11-21T04:50:07;1.20;;;0.70;;
26936;SDS011;14495;48.116;11.676;2022-11-21T04:52:33;2.55;;;0.55;;
26936;SDS011;14495;48.116;11.676;2022-11-21T04:54:59;2.65;;;0.73;;
26936;SDS011;14495;48.116;11.676;2022-11-21T04:57:26;0.95;;;0.70;;
26936;SDS011;14495;48.116;11.676;2022-11-21T04:59:52;1.88;;;0.52;;
26936;SDS011;14495;48.116;11.676;2022-11-21T05:02:18;2.25;;;0.70;;
26936;SDS011;14495;48.116;11.676;2022-11-21T05:04:43;2.25;;;0.70;;
26936;SDS011;14495;48.116;11.676;2022-11-21T05:07:08;3.72;;;0.75;;
26936;SDS011;14495;48.116;11.676;2022-11-21T05:09:34;2.33;;;0.80;;
26936;SDS011;14495;48.116;11.676;2022-11-21T05:11:59;2.90;;;0.80;;
26936;SDS011;14495;48.116;11.676;2022-11-21T05:14:43;1.17;;;0.63;;
26936;SDS011;14495;48.116;11.676;2022-11-21T05:17:08;1.30;;;0.88;;
26936;SDS011;14495;48.116;11.676;2022-11-21T05:19:33;1.27;;;0.70;;
26936;SDS011;14495;48.116;11.676;2022-11-21T05:21:59;1.05;;;0.70;;
26936;SDS011;14495;48.116;11.676;2022-11-21T05:24:24;1.17;;;0.60;;
26936;SDS011;14495;48.116;11.676;2022-11-21T05:26:49;0.73;;;0.60;;
26936;SDS011;14495;48.116;11.676;2022-11-21T05:29:15;0.80;;;0.60;;
26936;SDS011;14495;48.116;11.676;2022-11-21T05:31:40;2.58;;;0.65;;
26936;SDS011;14495;48.116;11.676;2022-11-21T05:34:05;0.57;;;0.50;;
26936;SDS011;14495;48.116;11.676;2022-11-21T05:36:31;1.15;;;0.80;;
26936;SDS011;14495;48.116;11.676;2022-11-21T05:38:56;2.70;;;0.50;;
26936;SDS011;14495;48.116;11.676;2022-11-21T05:41:21;1.67;;;0.57;;
26936;SDS011;14495;48.116;11.676;2022-11-21T05:43:47;3.08;;;1.05;;
26936;SDS011;14495;48.116;11.676;2022-11-21T05:46:15;0.55;;;0.52;;
26936;SDS011;14495;48.116;11.676;2022-11-21T05:48:42;0.63;;;0.50;;
26936;SDS011;14495;48.116;11.676;2022-11-21T05:51:08;0.82;;;0.47;;
26936;SDS011;14495;48.116;11.676;2022-11-21T05:53:34;2.35;;;0.68;;
26936;SDS011;14495;48.116;11.676;2022-11-21T05:56:01;3.40;;;1.10;;
26936;SDS011;14495;48.116;11.676;2022-11-21T05:58:31;3.33;;;0.80;;
26936;SDS011;14495;48.116;11.676;2022-11-21T06:00:56;2.70;;;1.33;;
26936;SDS011;14495;48.116;11.676;2022-11-21T06:03:23;0.95;;;0.80;;
26936;SDS011;14495;48.116;11.676;2022-11-21T06:05:56;2.78;;;0.50;;
26936;SDS011;14495;48.116;11.676;2022-11-21T06:08:31;2.40;;;0.80;;
26936;SDS011;14495;48.116;11.676;2022-11-21T06:11:01;0.70;;;0.70;;
26936;SDS011;14495;48.116;11.676;2022-11-21T06:13:27;1.48;;;0.50;;
26936;SDS011;14495;48.116;11.676;2022-11-21T06:16:00;2.30;;;0.82;;
26936;SDS011;14495;48.116;11.676;2022-11-21T06:18:31;4.13;;;0.77;;
26936;SDS011;14495;48.116;11.676;2022-11-21T06:21:05;2.60;;;1.05;;
26936;SDS011;14495;48.116;11.676;2022-11-21T06:23:32;1.65;;;0.60;;
26936;SDS011;14495;48.116;11.676;2022-11-21T06:25:59;0.60;;;0.60;;
26936;SDS011;14495;48.116;11.676;2022-11-21T06:28:26;2.28;;;0.85;;
26936;SDS011;14495;48.116;11.676;2022-11-21T06:30:55;1.27;;;0.82;;
26936;SDS011;14495;48.116;11.676;2022-11-21T06:33:20;0.60;;;0.60;;
26936;SDS011;14495;48.116;11.676;2022-11-21T06:35:45;1.15;;;0.73;;
26936;SDS011;14495;48.116;11.676;2022-11-21T06:38:11;3.42;;;0.50;;
26936;SDS011;14495;48.116;11.676;2022-11-21T06:40:42;1.33;;;0.93;;
26936;SDS011;14495;48.116;11.676;2022-11-21T06:43:08;0.60;;;0.60;;
26936;SDS011;14495;48.116;11.676;2022-11-21T06:45:33;1.55;;;1.00;;
26936;SDS011;14495;48.116;11.676;2022-11-21T06:48:00;1.70;;;0.70;;
26936;SDS011;14495;48.116;11.676;2022-11-21T06:50:26;2.47;;;1.05;;
26936;SDS011;14495;48.116;11.676;2022-11-21T06:52:51;1.27;;;0.73;;
26936;SDS011;14495;48.116;11.676;2022-11-21T06:55:17;1.98;;;0.90;;
26936;SDS011;14495;48.116;11.676;2022-11-21T06:57:42;1.58;;;0.60;;
26936;SDS011;14495;48.116;11.676;2022-11-21T07:00:07;2.17;;;0.70;;
26936;SDS011;14495;48.116;11.676;2022-11-21T07:02:33;0.50;;;0.50;;
26936;SDS011;14495;48.116;11.676;2022-11-21T07:04:58;4.32;;;0.70;;
26936;SDS011;14495;48.116;11.676;2022-11-21T07:07:24;0.40;;;0.40;;
26936;SDS011;14495;48.116;11.676;2022-11-21T07:09:49;0.75;;;0.50;;
26936;SDS011;14495;48.116;11.676;2022-11-21T07:12:14;0.60;;;0.50;;
26936;SDS011;14495;48.116;11.676;2022-11-21T07:14:58;2.17;;;0.73;;
26936;SDS011;14495;48.116;11.676;2022-11-21T07:17:23;0.50;;;0.50;;
26936;SDS011;14495;48.116;11.676;2022-11-21T07:19:49;0.52;;;0.52;;
26936;SDS011;14495;48.116;11.676;2022-11-21T07:22:14;1.48;;;0.50;;
26936;SDS011;14495;48.116;11.676;2022-11-21T07:24:39;0.77;;;0.70;;
26936;SDS011;14495;48.116;11.676;2022-11-21T07:27:05;0.50;;;0.50;;
26936;SDS011;14495;48.116;11.676;2022-11-21T07:29:30;0.55;;;0.50;;
26936;SDS011;14495;48.116;11.676;2022-11-21T07:31:55;0.73;;;0.50;;
26936;SDS011;14495;48.116;11.676;2022-11-21T07:34:21;1.75;;;0.90;;
26936;SDS011;14495;48.116;11.676;2022-11-21T07:36:46;1.42;;;0.63;;
26936;SDS011;14495;48.116;11.676;2022-11-21T07:39:11;0.55;;;0.55;;
26936;SDS011;14495;48.116;11.676;2022-11-21T07:41:36;0.75;;;0.60;;
26936;SDS011;14495;48.116;11.676;2022-11-21T07:44:02;2.58;;;0.65;;
26936;SDS011;14495;48.116;11.676;2022-11-21T07:46:27;1.88;;;0.43;;
26936;SDS011;14495;48.116;11.676;2022-11-21T07:48:53;0.50;;;0.50;;
26936;SDS011;14495;48.116;11.676;2022-11-21T07:51:18;0.45;;;0.45;;
26936;SDS011;14495;48.116;11.676;2022-11-21T07:53:43;2.38;;;0.50;;
26936;SDS011;14495;48.116;11.676;2022-11-21T07:56:09;0.40;;;0.40;;
26936;SDS011;14495;48.116;11.676;2022-11-21T07:58:34;3.10;;;0.60;;
26936;SDS011;14495;48.116;11.676;2022-11-21T08:01:03;0.60;;;0.60;;
26936;SDS011;14495;48.116;11.676;2022-11-21T08:03:30;0.50;;;0.50;;
26936;SDS011;14495;48.116;11.676;2022-11-21T08:06:02;0.75;;;0.55;;
26936;SDS011;14495;48.116;11.676;2022-11-21T08:08:28;0.52;;;0.40;;
26936;SDS011;14495;48.116;11.676;2022-11-21T08:10:54;0.45;;;0.45;;
26936;SDS011;14495;48.116;11.676;2022-11-21T08:13:19;0.40;;;0.40;;
26936;SDS011;14495;48.116;11.676;2022-11-21T08:15:45;0.93;;;0.52;;
26936;SDS011;14495;48.116;11.676;2022-11-21T08:18:11;0.43;;;0.43;;
26936;SDS011;14495;48.116;11.676;2022-11-21T08:20:38;0.47;;;0.47;;
26936;SDS011;14495;48.116;11.676;2022-11-21T08:23:04;0.60;;;0.60;;
26936;SDS011;14495;48.116;11.676;2022-11-21T08:25:30;0.63;;;0.50;;
26936;SDS011;14495;48.116;11.676;2022-11-21T08:27:56;0.73;;;0.50;;
26936;SDS011;14495;48.116;11.676;2022-11-21T08:30:22;0.63;;;0.60;;
26936;SDS011;14495;48.116;11.676;2022-11-21T08:32:48;4.60;;;0.57;;
26936;SDS011;14495;48.116;11.676;2022-11-21T08:35:13;0.45;;;0.43;;
26936;SDS011;14495;48.116;11.676;2022-11-21T08:37:39;1.40;;;0.70;;
26936;SDS011;14495;48.116;11.676;2022-11-21T08:40:04;1.58;;;0.70;;
26936;SDS011;14495;48.116;11.676;2022-11-21T08:42:30;0.55;;;0.50;;
26936;SDS011;14495;48.116;11.676;2022-11-21T08:44:55;0.70;;;0.60;;
26936;SDS011;14495;48.116;11.676;2022-11-21T08:47:21;6.53;;;1.00;;
26936;SDS011;14495;48.116;11.676;2022-11-21T08:49:46;1.25;;;0.60;;
26936;SDS011;14495;48.116;11.676;2022-11-21T08:52:12;0.98;;;0.77;;
26936;SDS011;14495;48.116;11.676;2022-11-21T08:54:38;1.95;;;0.90;;
26936;SDS011;14495;48.116;11.676;2022-11-21T08:57:03;0.95;;;0.60;;
26936;SDS011;14495;48.116;11.676;2022-11-21T08:59:29;0.82;;;0.47;;
26936;SDS011;14495;48.116;11.676;2022-11-21T09:01:54;1.42;;;0.60;;
26936;SDS011;14495;48.116;11.676;2022-11-21T09:04:19;2.42;;;0.82;;
26936;SDS011;14495;48.116;11.676;2022-11-21T09:06:45;3.08;;;0.68;;
26936;SDS011;14495;48.116;11.676;2022-11-21T09:09:10;0.60;;;0.60;;
26936;SDS011;14495;48.116;11.676;2022-11-21T09:11:35;1.73;;;0.80;;
26936;SDS011;14495;48.116;11.676;2022-11-21T09:14:01;0.93;;;0.60;;
26936;SDS011;14495;48.116;11.676;2022-11-21T09:16:45;2.60;;;0.93;;
26936;SDS011;14495;48.116;11.676;2022-11-21T09:19:29;2.70;;;0.90;;
26936;SDS011;14495;48.116;11.676;2022-11-21T09:21:55;0.70;;;0.68;;
26936;SDS011;14495;48.116;11.676;2022-11-21T09:24:20;0.90;;;0.60;;
26936;SDS011;14495;48.116;11.676;2022-11-21T09:26:45;1.25;;;0.60;;
26936;SDS011;14495;48.116;11.676;2022-11-21T09:29:11;0.75;;;0.52;;
26936;SDS011;14495;48.116;11.676;2022-11-21T09:31:39;2.15;;;0.70;;
26936;SDS011;14495;48.116;11.676;2022-11-21T09:34:05;0.50;;;0.50;;
26936;SDS011;14495;48.116;11.676;2022-11-21T09:36:30;2.47;;;0.85;;
26936;SDS011;14495;48.116;11.676;2022-11-21T09:38:56;2.25;;;0.43;;
26936;SDS011;14495;48.116;11.676;2022-11-21T09:41:27;0.60;;;0.60;;
26936;SDS011;14495;48.116;11.676;2022-11-21T09:44:22;1.17;;;0.60;;
26936;SDS011;14495;48.116;11.676;2022-11-21T09:47:29;1.75;;;0.90;;
26936;SDS011;14495;48.116;11.676;2022-11-21T09:49:59;2.38;;;0.70;;
26936;SDS011;14495;48.116;11.676;2022-11-21T09:52:33;0.70;;;0.45;;
26936;SDS011;14495;48.116;11.676;2022-11-21T09:55:06;1.17;;;0.50;;
26936;SDS011;14495;48.116;11.676;2022-11-21T09:57:44;2.80;;;0.70;;
26936;SDS011;14495;48.116;11.676;2022-11-21T10:00:19;1.10;;;0.60;;
26936;SDS011;14495;48.116;11.676;2022-11-21T10:02:47;1.60;;;0.80;;
26936;SDS011;14495;48.116;11.676;2022-11-21T10:05:13;1.02;;;0.60;;
26936;SDS011;14495;48.116;11.676;2022-11-21T10:07:39;4.95;;;0.85;;
26936;SDS011;14495;48.116;11.676;2022-11-21T10:21:19;2.03;;;0.75;;
26936;SDS011;14495;48.116;11.676;2022-11-21T10:24:15;2.60;;;1.05;;
26936;SDS011;14495;48.116;11.676;2022-11-21T10:29:26;0.60;;;0.52;;
26936;SDS011;14495;48.116;11.676;2022-11-21T10:31:57;2.15;;;0.70;;
26936;SDS011;14495;48.116;11.676;2022-11-21T10:34:33;0.88;;;0.75;;
26936;SDS011;14495;48.116;11.676;2022-11-21T10:39:56;1.25;;;0.70;;
26936;SDS011;14495;48.116;11.676;2022-11-21T10:42:36;0.68;;;0.60;;
26936;SDS011;14495;48.116;11.676;2022-11-21T10:45:10;4.97;;;1.20;;
26936;SDS011;14495;48.116;11.676;2022-11-21T10:47:40;1.52;;;1.05;;
26936;SDS011;14495;48.116;11.676;2022-11-21T10:52:35;2.80;;;1.08;;
26936;SDS011;14495;48.116;11.676;2022-11-21T10:55:07;2.08;;;0.85;;
26936;SDS011;14495;48.116;11.676;2022-11-21T10:57:44;1.35;;;0.90;;
26936;SDS011;14495;48.116;11.676;2022-11-21T11:02:37;1.48;;;0.75;;
26936;SDS011;14495;48.116;11.676;2022-11-21T11:07:40;2.58;;;1.00;;
26936;SDS011;14495;48.116;11.676;2022-11-21T11:10:13;4.95;;;2.25;;
26936;SDS011;14495;48.116;11.676;2022-11-21T11:12:48;2.75;;;1.10;;
26936;SDS011;14495;48.116;11.676;2022-11-21T11:15:32;4.68;;;0.85;;
26936;SDS011;14495;48.116;11.676;2022-11-21T11:17:59;1.60;;;0.80;;
26936;SDS011;14495;48.116;11.676;2022-11-21T11:22:54;0.65;;;0.65;;
26936;SDS011;14495;48.116;11.676;2022-11-21T11:25:20;1.85;;;0.65;;
26936;SDS011;14495;48.116;11.676;2022-11-21T11:27:46;1.33;;;0.95;;
26936;SDS011;14495;48.116;11.676;2022-11-21T11:30:14;0.77;;;0.55;;
26936;SDS011;14495;48.116;11.676;2022-11-21T11:32:41;1.88;;;0.80;;
26936;SDS011;14495;48.116;11.676;2022-11-21T11:35:20;3.08;;;0.90;;
26936;SDS011;14495;48.116;11.676;2022-11-21T11:37:59;4.72;;;0.95;;
26936;SDS011;14495;48.116;11.676;2022-11-21T11:40:40;1.13;;;0.63;;
26936;SDS011;14495;48.116;11.676;2022-11-21T11:48:56;3.13;;;1.10;;
26936;SDS011;14495;48.116;11.676;2022-11-21T11:51:29;2.75;;;0.90;;
26936;SDS011;14495;48.116;11.676;2022-11-21T11:54:09;1.77;;;0.80;;
26936;SDS011;14495;48.116;11.676;2022-11-21T11:56:39;0.75;;;0.63;;
26936;SDS011;14495;48.116;11.676;2022-11-21T11:59:20;3.67;;;1.02;;
26936;SDS011;14495;48.116;11.676;2022-11-21T12:02:06;2.00;;;0.98;;
26936;SDS011;14495;48.116;11.676;2022-11-21T12:10:12;3.03;;;0.90;;
26936;SDS011;14495;48.116;11.676;2022-11-21T12:13:01;3.40;;;0.75;;
26936;SDS011;14495;48.116;11.676;2022-11-21T12:21:04;2.10;;;0.80;;
26936;SDS011;14495;48.116;11.676;2022-11-21T12:23:49;3.10;;;1.00;;
26936;SDS011;14495;48.116;11.676;2022-11-21T12:26:22;5.25;;;1.02;;
26936;SDS011;14495;48.116;11.676;2022-11-21T12:28:58;1.77;;;0.60;;
26936;SDS011;14495;48.116;11.676;2022-11-21T12:37:10;2.78;;;0.80;;
26936;SDS011;14495;48.116;11.676;2022-11-21T12:39:57;1.48;;;0.80;;
26936;SDS011;14495;48.116;11.676;2022-11-21T12:45:24;1.58;;;0.70;;
26936;SDS011;14495;48.116;11.676;2022-11-21T12:50:41;3.45;;;1.00;;
26936;SDS011;14495;48.116;11.676;2022-11-21T12:53:49;4.30;;;1.10;;
26936;SDS011;14495;48.116;11.676;2022-11-21T12:59:05;3.58;;;0.80;;
26936;SDS011;14495;48.116;11.676;2022-11-21T13:01:49;3.80;;;1.17;;
26936;SDS011;14495;48.116;11.676;2022-11-21T13:04:42;3.15;;;0.60;;
26936;SDS011;14495;48.116;11.676;2022-11-21T13:07:12;3.22;;;0.50;;
26936;SDS011;14495;48.116;11.676;2022-11-21T13:09:42;2.38;;;1.25;;
26936;SDS011;14495;48.116;11.676;2022-11-21T13:12:17;3.00;;;1.33;;
26936;SDS011;14495;48.116;11.676;2022-11-21T13:14:50;1.20;;;0.80;;
26936;SDS011;14495;48.116;11.676;2022-11-21T13:17:21;1.67;;;0.77;;
26936;SDS011;14495;48.116;11.676;2022-11-21T13:19:59;1.00;;;0.60;;
26936;SDS011;14495;48.116;11.676;2022-11-21T13:36:03;1.60;;;0.73;;
26936;SDS011;14495;48.116;11.676;2022-11-21T13:38:30;2.55;;;0.98;;
26936;SDS011;14495;48.116;11.676;2022-11-21T13:41:36;1.60;;;1.17;;
26936;SDS011;14495;48.116;11.676;2022-11-21T13:46:59;0.70;;;0.52;;
26936;SDS011;14495;48.116;11.676;2022-11-21T13:49:58;1.10;;;0.60;;
26936;SDS011;14495;48.116;11.676;2022-11-21T13:53:07;1.52;;;0.70;;
26936;SDS011;14495;48.116;11.676;2022-11-21T14:06:56;1.23;;;0.85;;
26936;SDS011;14495;48.116;11.676;2022-11-21T14:09:48;5.38;;;0.95;;
26936;SDS011;14495;48.116;11.676;2022-11-21T14:12:23;1.67;;;0.82;;
26936;SDS011;14495;48.116;11.676;2022-11-21T14:20:19;1.50;;;0.88;;
26936;SDS011;14495;48.116;11.676;2022-11-21T14:22:59;2.95;;;0.80;;
26936;SDS011;14495;48.116;11.676;2022-11-21T14:28:05;1.35;;;0.50;;
26936;SDS011;14495;48.116;11.676;2022-11-21T14:30:36;3.25;;;1.08;;
26936;SDS011;14495;48.116;11.676;2022-11-21T14:33:19;2.92;;;0.80;;
26936;SDS011;14495;48.116;11.676;2022-11-21T14:35:47;2.05;;;0.70;;
26936;SDS011;14495;48.116;11.676;2022-11-21T14:38:13;1.10;;;0.50;;
26936;SDS011;14495;48.116;11.676;2022-11-21T14:40:39;3.92;;;0.73;;
26936;SDS011;14495;48.116;11.676;2022-11-21T14:46:14;2.17;;;0.80;;
26936;SDS011;14495;48.116;11.676;2022-11-21T14:48:40;2.53;;;0.80;;
26936;SDS011;14495;48.116;11.676;2022-11-21T14:51:09;2.20;;;1.00;;
26936;SDS011;14495;48.116;11.676;2022-11-21T14:53:39;1.92;;;1.23;;
26936;SDS011;14495;48.116;11.676;2022-11-21T14:56:08;4.15;;;0.90;;
26936;SDS011;14495;48.116;11.676;2022-11-21T14:58:36;4.00;;;1.00;;
26936;SDS011;14495;48.116;11.676;2022-11-21T15:01:05;2.85;;;1.15;;
26936;SDS011;14495;48.116;11.676;2022-11-21T15:03:32;4.90;;;1.30;;
26936;SDS011;14495;48.116;11.676;2022-11-21T15:06:02;3.08;;;1.20;;
26936;SDS011;14495;48.116;11.676;2022-11-21T15:08:29;0.80;;;0.80;;
26936;SDS011;14495;48.116;11.676;2022-11-21T15:10:56;1.80;;;0.65;;
26936;SDS011;14495;48.116;11.676;2022-11-21T15:13:24;4.07;;;0.82;;
26936;SDS011;14495;48.116;11.676;2022-11-21T15:15:54;3.72;;;1.77;;
26936;SDS011;14495;48.116;11.676;2022-11-21T15:18:22;3.42;;;1.48;;
26936;SDS011;14495;48.116;11.676;2022-11-21T15:20:50;10.32;;;3.30;;
26936;SDS011;14495;48.116;11.676;2022-11-21T15:25:51;4.63;;;2.20;;
26936;SDS011;14495;48.116;11.676;2022-11-21T15:28:16;9.15;;;2.97;;
26936;SDS011;14495;48.116;11.676;2022-11-21T15:30:42;13.30;;;5.20;;
26936;SDS011;14495;48.116;11.676;2022-11-21T15:38:16;5.30;;;1.15;;
26936;SDS011;14495;48.116;11.676;2022-11-21T15:43:32;5.55;;;1.05;;
26936;SDS011;14495;48.116;11.676;2022-11-21T15:46:01;5.07;;;1.88;;
26936;SDS011;14495;48.116;11.676;2022-11-21T15:48:36;6.40;;;1.38;;
26936;SDS011;14495;48.116;11.676;2022-11-21T15:51:01;4.10;;;1.33;;
26936;SDS011;14495;48.116;11.676;2022-11-21T15:53:26;1.85;;;1.23;;
26936;SDS011;14495;48.116;11.676;2022-11-21T15:55:52;1.77;;;1.10;;
26936;SDS011;14495;48.116;11.676;2022-11-21T15:58:17;3.40;;;1.38;;
26936;SDS011;14495;48.116;11.676;2022-11-21T16:00:42;4.30;;;1.45;;
26936;SDS011;14495;48.116;11.676;2022-11-21T16:03:08;7.47;;;2.10;;
26936;SDS011;14495;48.116;11.676;2022-11-21T16:05:33;8.05;;;2.42;;
26936;SDS011;14495;48.116;11.676;2022-11-21T16:07:58;5.88;;;2.22;;
26936;SDS011;14495;48.116;11.676;2022-11-21T16:10:24;3.80;;;1.48;;
26936;SDS011;14495;48.116;11.676;2022-11-21T16:12:49;4.13;;;1.35;;
26936;SDS011;14495;48.116;11.676;2022-11-21T16:15:14;2.80;;;1.33;;
26936;SDS011;14495;48.116;11.676;2022-11-21T16:17:40;4.25;;;2.10;;
26936;SDS011;14495;48.116;11.676;2022-11-21T16:20:05;2.20;;;1.17;;
26936;SDS011;14495;48.116;11.676;2022-11-21T16:22:31;2.03;;;1.17;;
26936;SDS011;14495;48.116;11.676;2022-11-21T16:24:56;3.58;;;0.98;;
26936;SDS011;14495;48.116;11.676;2022-11-21T16:27:22;3.95;;;1.40;;
26936;SDS011;14495;48.116;11.676;2022-11-21T16:29:47;2.88;;;1.17;;
26936;SDS011;14495;48.116;11.676;2022-11-21T16:32:12;4.15;;;1.70;;
26936;SDS011;14495;48.116;11.676;2022-11-21T16:34:38;1.88;;;1.23;;
26936;SDS011;14495;48.116;11.676;2022-11-21T16:37:03;4.07;;;1.23;;
26936;SDS011;14495;48.116;11.676;2022-11-21T16:39:28;7.18;;;1.33;;
26936;SDS011;14495;48.116;11.676;2022-11-21T16:41:54;3.85;;;1.13;;
26936;SDS011;14495;48.116;11.676;2022-11-21T16:44:19;4.00;;;1.83;;